sensor_id;sensor_type;location;lat;lon;timestamp;P1;durP1;ratioP1;P2;durP2;ratioP2
35959;SDS011;22043;50.970;7.192;2023-05-13T00:01:40;4.10;;;2.40;;
35959;SDS011;22043;50.970;7.192;2023-05-13T00:04:06;4.18;;;2.28;;
35959;SDS011;22043;50.970;7.192;2023-05-13T00:06:33;6.22;;;2.40;;
35959;SDS011;22043;50.970;7.192;2023-05-13T00:09:00;5.53;;;3.40;;
35959;SDS011;22043;50.970;7.192;2023-05-13T00:11:25;3.92;;;2.67;;
35959;SDS011;22043;50.970;7.192;2023-05-13T00:13:51;7.03;;;2.50;;
35959;SDS011;22043;50.970;7.192;2023-05-13T00:16:17;6.88;;;2.67;;
35959;SDS011;22043;50.970;7.192;2023-05-13T00:18:43;5.13;;;3.22;;
35959;SDS011;22043;50.970;7.192;2023-05-13T00:21:08;4.25;;;2.58;;
35959;SDS011;22043;50.970;7.192;2023-05-13T00:23:34;5.95;;;2.72;;
35959;SDS011;22043;50.970;7.192;2023-05-13T00:26:00;4.80;;;3.00;;
35959;SDS011;22043;50.970;7.192;2023-05-13T00:28:25;6.05;;;2.90;;
35959;SDS011;22043;50.970;7.192;2023-05-13T00:30:51;5.00;;;2.85;;
35959;SDS011;22043;50.970;7.192;2023-05-13T00:33:16;3.83;;;2.28;;
35959;SDS011;22043;50.970;7.192;2023-05-13T00:35:43;4.97;;;2.53;;
35959;SDS011;22043;50.970;7.192;2023-05-13T00:38:08;5.28;;;2.17;;
35959;SDS011;22043;50.970;7.192;2023-05-13T00:40:37;4.72;;;2.60;;
35959;SDS011;22043;50.970;7.192;2023-05-13T00:43:07;5.22;;;2.65;;
35959;SDS011;22043;50.970;7.192;2023-05-13T00:45:34;6.32;;;2.42;;
35959;SDS011;22043;50.970;7.192;2023-05-13T00:48:01;5.63;;;2.50;;
35959;SDS011;22043;50.970;7.192;2023-05-13T00:50:30;4.50;;;2.65;;
35959;SDS011;22043;50.970;7.192;2023-05-13T00:52:56;4.32;;;2.25;;
35959;SDS011;22043;50.970;7.192;2023-05-13T00:55:22;5.22;;;2.47;;
35959;SDS011;22043;50.970;7.192;2023-05-13T00:57:48;3.63;;;2.10;;
35959;SDS011;22043;50.970;7.192;2023-05-13T01:00:16;4.38;;;2.40;;
35959;SDS011;22043;50.970;7.192;2023-05-13T01:10:43;4.28;;;2.75;;
35959;SDS011;22043;50.970;7.192;2023-05-13T01:13:27;4.25;;;2.22;;
35959;SDS011;22043;50.970;7.192;2023-05-13T01:16:05;6.40;;;2.13;;
35959;SDS011;22043;50.970;7.192;2023-05-13T01:18:39;3.43;;;2.10;;
35959;SDS011;22043;50.970;7.192;2023-05-13T01:21:07;4.05;;;2.50;;
35959;SDS011;22043;50.970;7.192;2023-05-13T01:23:34;5.55;;;3.08;;
35959;SDS011;22043;50.970;7.192;2023-05-13T01:25:59;6.15;;;2.58;;
35959;SDS011;22043;50.970;7.192;2023-05-13T01:28:25;6.25;;;2.70;;
35959;SDS011;22043;50.970;7.192;2023-05-13T01:30:52;3.78;;;2.45;;
35959;SDS011;22043;50.970;7.192;2023-05-13T01:33:21;5.32;;;2.85;;
35959;SDS011;22043;50.970;7.192;2023-05-13T01:35:48;7.95;;;2.67;;
35959;SDS011;22043;50.970;7.192;2023-05-13T01:38:16;5.38;;;2.78;;
35959;SDS011;22043;50.970;7.192;2023-05-13T01:40:47;4.47;;;2.97;;
35959;SDS011;22043;50.970;7.192;2023-05-13T01:43:13;8.10;;;3.08;;
35959;SDS011;22043;50.970;7.192;2023-05-13T01:45:38;4.68;;;2.78;;
35959;SDS011;22043;50.970;7.192;2023-05-13T01:48:05;5.13;;;2.95;;
35959;SDS011;22043;50.970;7.192;2023-05-13T01:50:39;6.32;;;2.80;;
35959;SDS011;22043;50.970;7.192;2023-05-13T01:53:07;11.50;;;3.70;;
35959;SDS011;22043;50.970;7.192;2023-05-13T01:55:33;5.80;;;3.00;;
35959;SDS011;22043;50.970;7.192;2023-05-13T01:58:01;6.10;;;3.30;;
35959;SDS011;22043;50.970;7.192;2023-05-13T02:00:27;6.47;;;3.70;;
35959;SDS011;22043;50.970;7.192;2023-05-13T02:02:53;7.45;;;3.60;;
35959;SDS011;22043;50.970;7.192;2023-05-13T02:05:18;6.25;;;3.28;;
35959;SDS011;22043;50.970;7.192;2023-05-13T02:07:44;7.93;;;3.45;;
35959;SDS011;22043;50.970;7.192;2023-05-13T02:10:10;5.82;;;3.17;;
35959;SDS011;22043;50.970;7.192;2023-05-13T02:12:36;5.82;;;3.70;;
35959;SDS011;22043;50.970;7.192;2023-05-13T02:15:02;5.72;;;3.60;;
35959;SDS011;22043;50.970;7.192;2023-05-13T02:17:29;5.65;;;2.85;;
35959;SDS011;22043;50.970;7.192;2023-05-13T02:19:54;5.35;;;3.15;;
35959;SDS011;22043;50.970;7.192;2023-05-13T02:22:23;8.27;;;3.05;;
35959;SDS011;22043;50.970;7.192;2023-05-13T02:24:54;6.72;;;3.15;;
35959;SDS011;22043;50.970;7.192;2023-05-13T02:27:20;4.82;;;3.15;;
35959;SDS011;22043;50.970;7.192;2023-05-13T02:29:47;4.85;;;3.08;;
35959;SDS011;22043;50.970;7.192;2023-05-13T02:32:13;5.45;;;3.70;;
35959;SDS011;22043;50.970;7.192;2023-05-13T02:34:38;6.65;;;3.35;;
35959;SDS011;22043;50.970;7.192;2023-05-13T02:37:04;6.07;;;3.40;;
35959;SDS011;22043;50.970;7.192;2023-05-13T02:39:31;7.78;;;3.20;;
35959;SDS011;22043;50.970;7.192;2023-05-13T02:41:57;4.53;;;2.85;;
35959;SDS011;22043;50.970;7.192;2023-05-13T02:44:28;6.97;;;3.70;;
35959;SDS011;22043;50.970;7.192;2023-05-13T02:46:54;4.93;;;2.83;;
35959;SDS011;22043;50.970;7.192;2023-05-13T02:49:20;5.70;;;3.25;;
35959;SDS011;22043;50.970;7.192;2023-05-13T02:51:53;6.20;;;3.15;;
35959;SDS011;22043;50.970;7.192;2023-05-13T02:54:25;5.57;;;3.40;;
35959;SDS011;22043;50.970;7.192;2023-05-13T02:56:51;5.30;;;3.00;;
35959;SDS011;22043;50.970;7.192;2023-05-13T02:59:17;5.38;;;3.63;;
35959;SDS011;22043;50.970;7.192;2023-05-13T03:01:42;8.02;;;3.28;;
35959;SDS011;22043;50.970;7.192;2023-05-13T03:04:08;7.72;;;3.97;;
35959;SDS011;22043;50.970;7.192;2023-05-13T03:06:33;5.05;;;3.35;;
35959;SDS011;22043;50.970;7.192;2023-05-13T03:08:59;5.90;;;3.40;;
35959;SDS011;22043;50.970;7.192;2023-05-13T03:11:25;4.72;;;2.88;;
35959;SDS011;22043;50.970;7.192;2023-05-13T03:13:50;4.97;;;3.13;;
35959;SDS011;22043;50.970;7.192;2023-05-13T03:16:16;7.32;;;3.22;;
35959;SDS011;22043;50.970;7.192;2023-05-13T03:18:42;5.53;;;3.35;;
35959;SDS011;22043;50.970;7.192;2023-05-13T03:21:07;6.57;;;3.10;;
35959;SDS011;22043;50.970;7.192;2023-05-13T03:23:33;8.07;;;3.22;;
35959;SDS011;22043;50.970;7.192;2023-05-13T03:25:59;5.72;;;3.22;;
35959;SDS011;22043;50.970;7.192;2023-05-13T03:28:26;4.85;;;3.08;;
35959;SDS011;22043;50.970;7.192;2023-05-13T03:30:51;5.60;;;2.85;;
35959;SDS011;22043;50.970;7.192;2023-05-13T03:33:17;7.43;;;3.63;;
35959;SDS011;22043;50.970;7.192;2023-05-13T03:35:44;6.72;;;3.28;;
35959;SDS011;22043;50.970;7.192;2023-05-13T03:38:10;5.55;;;3.30;;
35959;SDS011;22043;50.970;7.192;2023-05-13T03:40:40;6.05;;;3.47;;
35959;SDS011;22043;50.970;7.192;2023-05-13T03:43:06;6.43;;;3.28;;
35959;SDS011;22043;50.970;7.192;2023-05-13T03:45:33;4.90;;;3.08;;
35959;SDS011;22043;50.970;7.192;2023-05-13T03:48:03;6.53;;;3.20;;
35959;SDS011;22043;50.970;7.192;2023-05-13T03:50:29;7.35;;;2.97;;
35959;SDS011;22043;50.970;7.192;2023-05-13T03:52:55;6.22;;;3.08;;
35959;SDS011;22043;50.970;7.192;2023-05-13T03:55:21;7.28;;;3.50;;
35959;SDS011;22043;50.970;7.192;2023-05-13T03:57:47;5.22;;;3.10;;
35959;SDS011;22043;50.970;7.192;2023-05-13T04:00:15;7.38;;;2.95;;
35959;SDS011;22043;50.970;7.192;2023-05-13T04:02:41;4.25;;;2.70;;
35959;SDS011;22043;50.970;7.192;2023-05-13T04:05:08;10.60;;;3.63;;
35959;SDS011;22043;50.970;7.192;2023-05-13T04:07:33;4.65;;;2.88;;
35959;SDS011;22043;50.970;7.192;2023-05-13T04:09:59;5.38;;;3.20;;
35959;SDS011;22043;50.970;7.192;2023-05-13T04:12:25;5.82;;;3.30;;
35959;SDS011;22043;50.970;7.192;2023-05-13T04:14:50;5.60;;;3.38;;
35959;SDS011;22043;50.970;7.192;2023-05-13T04:17:16;6.50;;;3.47;;
35959;SDS011;22043;50.970;7.192;2023-05-13T04:19:41;7.18;;;3.33;;
35959;SDS011;22043;50.970;7.192;2023-05-13T04:22:07;8.43;;;3.20;;
35959;SDS011;22043;50.970;7.192;2023-05-13T04:24:32;5.45;;;2.95;;
35959;SDS011;22043;50.970;7.192;2023-05-13T04:26:58;7.07;;;3.40;;
35959;SDS011;22043;50.970;7.192;2023-05-13T04:29:23;4.63;;;2.78;;
35959;SDS011;22043;50.970;7.192;2023-05-13T04:31:49;6.10;;;3.67;;
35959;SDS011;22043;50.970;7.192;2023-05-13T04:34:15;7.15;;;3.85;;
35959;SDS011;22043;50.970;7.192;2023-05-13T04:36:41;7.30;;;3.08;;
35959;SDS011;22043;50.970;7.192;2023-05-13T04:39:08;5.32;;;3.10;;
35959;SDS011;22043;50.970;7.192;2023-05-13T04:41:34;5.78;;;3.33;;
35959;SDS011;22043;50.970;7.192;2023-05-13T04:44:00;7.13;;;2.83;;
35959;SDS011;22043;50.970;7.192;2023-05-13T04:46:26;5.00;;;3.25;;
35959;SDS011;22043;50.970;7.192;2023-05-13T04:48:52;4.45;;;3.08;;
35959;SDS011;22043;50.970;7.192;2023-05-13T04:51:18;4.93;;;3.03;;
35959;SDS011;22043;50.970;7.192;2023-05-13T04:53:44;5.47;;;3.25;;
35959;SDS011;22043;50.970;7.192;2023-05-13T04:56:10;8.63;;;3.50;;
35959;SDS011;22043;50.970;7.192;2023-05-13T04:58:36;5.68;;;3.53;;
35959;SDS011;22043;50.970;7.192;2023-05-13T05:01:01;4.13;;;2.92;;
35959;SDS011;22043;50.970;7.192;2023-05-13T05:03:27;7.90;;;3.83;;
35959;SDS011;22043;50.970;7.192;2023-05-13T05:05:53;5.57;;;2.80;;
35959;SDS011;22043;50.970;7.192;2023-05-13T05:08:20;5.25;;;3.30;;
35959;SDS011;22043;50.970;7.192;2023-05-13T05:10:47;5.65;;;3.20;;
35959;SDS011;22043;50.970;7.192;2023-05-13T05:13:13;5.22;;;2.92;;
35959;SDS011;22043;50.970;7.192;2023-05-13T05:15:39;5.68;;;3.03;;
35959;SDS011;22043;50.970;7.192;2023-05-13T05:18:07;6.90;;;3.45;;
35959;SDS011;22043;50.970;7.192;2023-05-13T05:20:35;5.22;;;2.95;;
35959;SDS011;22043;50.970;7.192;2023-05-13T05:23:02;5.65;;;2.95;;
35959;SDS011;22043;50.970;7.192;2023-05-13T05:25:28;5.00;;;2.72;;
35959;SDS011;22043;50.970;7.192;2023-05-13T05:27:54;5.93;;;3.20;;
35959;SDS011;22043;50.970;7.192;2023-05-13T05:30:21;5.00;;;3.17;;
35959;SDS011;22043;50.970;7.192;2023-05-13T05:32:54;5.55;;;3.25;;
35959;SDS011;22043;50.970;7.192;2023-05-13T05:35:20;4.90;;;3.00;;
35959;SDS011;22043;50.970;7.192;2023-05-13T05:37:46;7.82;;;3.70;;
35959;SDS011;22043;50.970;7.192;2023-05-13T05:40:12;5.75;;;3.28;;
35959;SDS011;22043;50.970;7.192;2023-05-13T05:42:38;6.78;;;3.33;;
35959;SDS011;22043;50.970;7.192;2023-05-13T05:45:04;6.38;;;2.97;;
35959;SDS011;22043;50.970;7.192;2023-05-13T05:47:30;5.47;;;2.90;;
35959;SDS011;22043;50.970;7.192;2023-05-13T05:49:56;7.43;;;3.55;;
35959;SDS011;22043;50.970;7.192;2023-05-13T05:52:21;5.65;;;3.13;;
35959;SDS011;22043;50.970;7.192;2023-05-13T05:54:47;6.20;;;3.25;;
35959;SDS011;22043;50.970;7.192;2023-05-13T05:57:12;5.93;;;3.17;;
35959;SDS011;22043;50.970;7.192;2023-05-13T05:59:38;4.72;;;2.90;;
35959;SDS011;22043;50.970;7.192;2023-05-13T06:02:04;5.25;;;2.83;;
35959;SDS011;22043;50.970;7.192;2023-05-13T06:14:56;4.00;;;2.40;;
35959;SDS011;22043;50.970;7.192;2023-05-13T06:22:08;4.63;;;3.00;;
35959;SDS011;22043;50.970;7.192;2023-05-13T06:25:18;4.65;;;2.50;;
35959;SDS011;22043;50.970;7.192;2023-05-13T06:27:43;8.32;;;2.88;;
35959;SDS011;22043;50.970;7.192;2023-05-13T06:30:09;6.35;;;2.72;;
35959;SDS011;22043;50.970;7.192;2023-05-13T06:32:39;4.50;;;2.60;;
35959;SDS011;22043;50.970;7.192;2023-05-13T06:35:04;4.07;;;2.25;;
35959;SDS011;22043;50.970;7.192;2023-05-13T06:37:30;5.00;;;2.40;;
35959;SDS011;22043;50.970;7.192;2023-05-13T06:39:56;5.05;;;2.58;;
35959;SDS011;22043;50.970;7.192;2023-05-13T06:42:22;4.57;;;2.45;;
35959;SDS011;22043;50.970;7.192;2023-05-13T06:44:55;5.63;;;2.60;;
35959;SDS011;22043;50.970;7.192;2023-05-13T06:47:26;6.53;;;2.30;;
35959;SDS011;22043;50.970;7.192;2023-05-13T06:49:51;4.20;;;2.20;;
35959;SDS011;22043;50.970;7.192;2023-05-13T06:52:16;7.97;;;2.15;;
35959;SDS011;22043;50.970;7.192;2023-05-13T06:54:42;3.58;;;2.15;;
35959;SDS011;22043;50.970;7.192;2023-05-13T06:57:07;6.00;;;2.85;;
35959;SDS011;22043;50.970;7.192;2023-05-13T06:59:33;10.48;;;4.50;;
35959;SDS011;22043;50.970;7.192;2023-05-13T07:01:59;11.48;;;5.38;;
35959;SDS011;22043;50.970;7.192;2023-05-13T07:04:25;17.77;;;7.35;;
35959;SDS011;22043;50.970;7.192;2023-05-13T07:06:50;22.73;;;10.27;;
35959;SDS011;22043;50.970;7.192;2023-05-13T07:09:16;33.78;;;14.43;;
35959;SDS011;22043;50.970;7.192;2023-05-13T07:11:41;33.38;;;13.27;;
35959;SDS011;22043;50.970;7.192;2023-05-13T07:14:07;32.70;;;13.23;;
35959;SDS011;22043;50.970;7.192;2023-05-13T07:16:32;27.40;;;12.65;;
35959;SDS011;22043;50.970;7.192;2023-05-13T07:19:00;24.88;;;10.95;;
35959;SDS011;22043;50.970;7.192;2023-05-13T07:21:25;29.63;;;13.60;;
35959;SDS011;22043;50.970;7.192;2023-05-13T07:23:51;28.60;;;14.15;;
35959;SDS011;22043;50.970;7.192;2023-05-13T07:26:16;39.97;;;17.20;;
35959;SDS011;22043;50.970;7.192;2023-05-13T07:28:42;39.65;;;17.30;;
35959;SDS011;22043;50.970;7.192;2023-05-13T07:31:07;31.02;;;15.73;;
35959;SDS011;22043;50.970;7.192;2023-05-13T07:33:33;17.63;;;8.20;;
35959;SDS011;22043;50.970;7.192;2023-05-13T07:35:59;7.07;;;3.60;;
35959;SDS011;22043;50.970;7.192;2023-05-13T07:38:25;4.63;;;2.35;;
35959;SDS011;22043;50.970;7.192;2023-05-13T07:40:50;4.38;;;2.53;;
35959;SDS011;22043;50.970;7.192;2023-05-13T07:43:16;5.32;;;2.03;;
35959;SDS011;22043;50.970;7.192;2023-05-13T07:45:48;2.63;;;1.58;;
35959;SDS011;22043;50.970;7.192;2023-05-13T07:48:14;4.53;;;1.90;;
35959;SDS011;22043;50.970;7.192;2023-05-13T07:50:42;3.65;;;1.88;;
35959;SDS011;22043;50.970;7.192;2023-05-13T07:53:10;3.30;;;1.88;;
35959;SDS011;22043;50.970;7.192;2023-05-13T07:55:36;4.82;;;1.98;;
35959;SDS011;22043;50.970;7.192;2023-05-13T07:58:01;3.40;;;1.60;;
35959;SDS011;22043;50.970;7.192;2023-05-13T08:00:27;5.40;;;2.15;;
35959;SDS011;22043;50.970;7.192;2023-05-13T08:02:52;5.53;;;2.33;;
35959;SDS011;22043;50.970;7.192;2023-05-13T08:05:18;2.95;;;1.77;;
35959;SDS011;22043;50.970;7.192;2023-05-13T08:07:43;5.05;;;2.08;;
35959;SDS011;22043;50.970;7.192;2023-05-13T08:10:09;4.35;;;2.20;;
35959;SDS011;22043;50.970;7.192;2023-05-13T08:12:34;7.28;;;2.75;;
35959;SDS011;22043;50.970;7.192;2023-05-13T08:15:00;5.65;;;2.60;;
35959;SDS011;22043;50.970;7.192;2023-05-13T08:17:28;6.18;;;2.42;;
35959;SDS011;22043;50.970;7.192;2023-05-13T08:19:53;6.18;;;2.60;;
35959;SDS011;22043;50.970;7.192;2023-05-13T08:22:19;5.20;;;2.80;;
35959;SDS011;22043;50.970;7.192;2023-05-13T08:24:44;8.68;;;3.42;;
35959;SDS011;22043;50.970;7.192;2023-05-13T08:27:10;5.55;;;2.67;;
35959;SDS011;22043;50.970;7.192;2023-05-13T08:29:36;6.90;;;3.50;;
35959;SDS011;22043;50.970;7.192;2023-05-13T08:32:02;9.07;;;3.90;;
35959;SDS011;22043;50.970;7.192;2023-05-13T08:34:28;8.38;;;4.10;;
35959;SDS011;22043;50.970;7.192;2023-05-13T08:36:53;9.73;;;3.60;;
35959;SDS011;22043;50.970;7.192;2023-05-13T08:39:18;9.15;;;3.45;;
35959;SDS011;22043;50.970;7.192;2023-05-13T08:41:44;8.02;;;4.15;;
35959;SDS011;22043;50.970;7.192;2023-05-13T08:44:10;9.75;;;3.78;;
35959;SDS011;22043;50.970;7.192;2023-05-13T08:46:37;5.60;;;3.13;;
35959;SDS011;22043;50.970;7.192;2023-05-13T08:49:05;6.82;;;3.05;;
35959;SDS011;22043;50.970;7.192;2023-05-13T08:51:31;6.88;;;3.10;;
35959;SDS011;22043;50.970;7.192;2023-05-13T08:53:57;6.95;;;3.38;;
35959;SDS011;22043;50.970;7.192;2023-05-13T08:56:25;6.28;;;3.65;;
35959;SDS011;22043;50.970;7.192;2023-05-13T08:58:53;6.93;;;3.30;;
35959;SDS011;22043;50.970;7.192;2023-05-13T09:01:19;5.97;;;3.00;;
35959;SDS011;22043;50.970;7.192;2023-05-13T09:03:56;6.13;;;3.45;;
35959;SDS011;22043;50.970;7.192;2023-05-13T09:06:24;7.55;;;3.03;;
35959;SDS011;22043;50.970;7.192;2023-05-13T09:08:49;5.82;;;3.33;;
35959;SDS011;22043;50.970;7.192;2023-05-13T09:11:15;7.30;;;3.42;;
35959;SDS011;22043;50.970;7.192;2023-05-13T09:13:41;5.90;;;3.13;;
35959;SDS011;22043;50.970;7.192;2023-05-13T09:16:21;6.75;;;2.95;;
35959;SDS011;22043;50.970;7.192;2023-05-13T09:18:47;6.40;;;3.03;;
35959;SDS011;22043;50.970;7.192;2023-05-13T09:21:26;13.18;;;3.40;;
35959;SDS011;22043;50.970;7.192;2023-05-13T09:24:06;11.40;;;3.33;;
35959;SDS011;22043;50.970;7.192;2023-05-13T09:26:33;7.00;;;3.22;;
35959;SDS011;22043;50.970;7.192;2023-05-13T09:31:48;6.40;;;3.05;;
35959;SDS011;22043;50.970;7.192;2023-05-13T09:34:28;7.35;;;3.72;;
35959;SDS011;22043;50.970;7.192;2023-05-13T09:36:55;7.03;;;3.28;;
35959;SDS011;22043;50.970;7.192;2023-05-13T09:39:21;7.70;;;4.05;;
35959;SDS011;22043;50.970;7.192;2023-05-13T09:41:47;6.30;;;3.13;;
35959;SDS011;22043;50.970;7.192;2023-05-13T09:44:12;5.85;;;3.25;;
35959;SDS011;22043;50.970;7.192;2023-05-13T09:46:37;7.97;;;2.83;;
35959;SDS011;22043;50.970;7.192;2023-05-13T09:49:04;8.43;;;3.13;;
35959;SDS011;22043;50.970;7.192;2023-05-13T09:51:30;6.25;;;3.25;;
35959;SDS011;22043;50.970;7.192;2023-05-13T09:54:05;5.72;;;3.95;;
35959;SDS011;22043;50.970;7.192;2023-05-13T09:56:34;6.68;;;3.42;;
35959;SDS011;22043;50.970;7.192;2023-05-13T09:59:01;5.75;;;3.38;;
35959;SDS011;22043;50.970;7.192;2023-05-13T10:01:27;6.22;;;3.20;;
35959;SDS011;22043;50.970;7.192;2023-05-13T10:03:56;6.10;;;3.35;;
35959;SDS011;22043;50.970;7.192;2023-05-13T10:06:27;5.45;;;3.33;;
35959;SDS011;22043;50.970;7.192;2023-05-13T10:08:54;7.75;;;4.53;;
35959;SDS011;22043;50.970;7.192;2023-05-13T10:11:23;7.40;;;4.25;;
35959;SDS011;22043;50.970;7.192;2023-05-13T10:13:49;6.35;;;3.88;;
35959;SDS011;22043;50.970;7.192;2023-05-13T10:16:19;8.82;;;3.95;;
35959;SDS011;22043;50.970;7.192;2023-05-13T10:18:47;9.10;;;4.03;;
35959;SDS011;22043;50.970;7.192;2023-05-13T10:21:12;7.00;;;3.90;;
35959;SDS011;22043;50.970;7.192;2023-05-13T10:23:41;8.32;;;4.80;;
35959;SDS011;22043;50.970;7.192;2023-05-13T10:26:07;9.57;;;4.20;;
35959;SDS011;22043;50.970;7.192;2023-05-13T10:28:32;8.07;;;4.55;;
35959;SDS011;22043;50.970;7.192;2023-05-13T10:30:58;8.15;;;4.47;;
35959;SDS011;22043;50.970;7.192;2023-05-13T10:33:23;9.55;;;4.20;;
35959;SDS011;22043;50.970;7.192;2023-05-13T10:36:11;6.78;;;4.32;;
35959;SDS011;22043;50.970;7.192;2023-05-13T10:41:27;8.43;;;4.63;;
35959;SDS011;22043;50.970;7.192;2023-05-13T10:44:13;6.75;;;4.20;;
35959;SDS011;22043;50.970;7.192;2023-05-13T10:46:38;7.00;;;4.15;;
35959;SDS011;22043;50.970;7.192;2023-05-13T10:49:07;6.38;;;3.90;;
35959;SDS011;22043;50.970;7.192;2023-05-13T10:51:38;7.20;;;3.85;;
35959;SDS011;22043;50.970;7.192;2023-05-13T10:54:16;8.05;;;4.15;;
35959;SDS011;22043;50.970;7.192;2023-05-13T10:56:43;9.10;;;4.53;;
35959;SDS011;22043;50.970;7.192;2023-05-13T10:59:08;7.20;;;4.55;;
35959;SDS011;22043;50.970;7.192;2023-05-13T11:01:37;6.10;;;2.30;;
35959;SDS011;22043;50.970;7.192;2023-05-13T11:04:10;3.55;;;2.00;;
35959;SDS011;22043;50.970;7.192;2023-05-13T11:06:38;4.18;;;1.98;;
35959;SDS011;22043;50.970;7.192;2023-05-13T11:09:06;4.70;;;2.25;;
35959;SDS011;22043;50.970;7.192;2023-05-13T11:11:33;6.35;;;2.47;;
35959;SDS011;22043;50.970;7.192;2023-05-13T11:14:16;4.47;;;1.85;;
35959;SDS011;22043;50.970;7.192;2023-05-13T11:19:37;2.95;;;1.75;;
35959;SDS011;22043;50.970;7.192;2023-05-13T11:40:32;4.97;;;1.85;;
35959;SDS011;22043;50.970;7.192;2023-05-13T11:42:59;3.47;;;1.50;;
35959;SDS011;22043;50.970;7.192;2023-05-13T11:45:38;4.20;;;1.75;;
35959;SDS011;22043;50.970;7.192;2023-05-13T11:48:18;5.10;;;1.30;;
35959;SDS011;22043;50.970;7.192;2023-05-13T11:50:55;3.08;;;0.90;;
35959;SDS011;22043;50.970;7.192;2023-05-13T11:53:24;2.25;;;1.00;;
35959;SDS011;22043;50.970;7.192;2023-05-13T11:55:49;2.92;;;1.17;;
35959;SDS011;22043;50.970;7.192;2023-05-13T11:58:19;3.25;;;1.48;;
35959;SDS011;22043;50.970;7.192;2023-05-13T12:32:51;3.05;;;1.92;;
35959;SDS011;22043;50.970;7.192;2023-05-13T12:35:16;4.38;;;2.00;;
35959;SDS011;22043;50.970;7.192;2023-05-13T12:37:42;5.75;;;2.15;;
35959;SDS011;22043;50.970;7.192;2023-05-13T12:40:10;3.83;;;2.33;;
35959;SDS011;22043;50.970;7.192;2023-05-13T12:42:37;3.63;;;2.28;;
35959;SDS011;22043;50.970;7.192;2023-05-13T12:45:02;4.93;;;2.00;;
35959;SDS011;22043;50.970;7.192;2023-05-13T12:47:48;6.00;;;2.45;;
35959;SDS011;22043;50.970;7.192;2023-05-13T12:50:14;7.47;;;2.45;;
35959;SDS011;22043;50.970;7.192;2023-05-13T12:52:40;7.70;;;2.28;;
35959;SDS011;22043;50.970;7.192;2023-05-13T12:55:06;3.67;;;2.47;;
35959;SDS011;22043;50.970;7.192;2023-05-13T12:57:31;6.82;;;2.67;;
35959;SDS011;22043;50.970;7.192;2023-05-13T12:59:57;3.97;;;2.05;;
35959;SDS011;22043;50.970;7.192;2023-05-13T13:02:22;3.47;;;1.88;;
35959;SDS011;22043;50.970;7.192;2023-05-13T13:04:48;4.45;;;1.67;;
35959;SDS011;22043;50.970;7.192;2023-05-13T13:07:13;4.80;;;1.85;;
35959;SDS011;22043;50.970;7.192;2023-05-13T13:09:39;4.63;;;2.00;;
35959;SDS011;22043;50.970;7.192;2023-05-13T13:12:04;2.40;;;1.45;;
35959;SDS011;22043;50.970;7.192;2023-05-13T13:14:30;5.03;;;1.55;;
35959;SDS011;22043;50.970;7.192;2023-05-13T13:16:56;3.65;;;1.83;;
35959;SDS011;22043;50.970;7.192;2023-05-13T13:19:21;3.22;;;1.77;;
35959;SDS011;22043;50.970;7.192;2023-05-13T13:21:47;3.13;;;1.58;;
35959;SDS011;22043;50.970;7.192;2023-05-13T13:24:12;4.40;;;1.40;;
35959;SDS011;22043;50.970;7.192;2023-05-13T13:26:38;4.53;;;1.60;;
35959;SDS011;22043;50.970;7.192;2023-05-13T13:29:03;3.17;;;1.70;;
35959;SDS011;22043;50.970;7.192;2023-05-13T13:31:29;2.55;;;1.38;;
35959;SDS011;22043;50.970;7.192;2023-05-13T13:33:54;2.38;;;1.40;;
35959;SDS011;22043;50.970;7.192;2023-05-13T13:38:48;3.83;;;1.55;;
35959;SDS011;22043;50.970;7.192;2023-05-13T13:41:13;3.10;;;1.42;;
35959;SDS011;22043;50.970;7.192;2023-05-13T13:43:39;2.85;;;1.60;;
35959;SDS011;22043;50.970;7.192;2023-05-13T13:46:04;2.15;;;1.20;;
35959;SDS011;22043;50.970;7.192;2023-05-13T13:48:30;4.15;;;1.75;;
35959;SDS011;22043;50.970;7.192;2023-05-13T13:50:55;2.15;;;1.45;;
35959;SDS011;22043;50.970;7.192;2023-05-13T13:53:22;2.20;;;1.30;;
35959;SDS011;22043;50.970;7.192;2023-05-13T13:55:48;3.75;;;2.28;;
35959;SDS011;22043;50.970;7.192;2023-05-13T13:58:13;4.50;;;1.73;;
35959;SDS011;22043;50.970;7.192;2023-05-13T14:00:39;4.57;;;1.80;;
35959;SDS011;22043;50.970;7.192;2023-05-13T14:03:05;2.92;;;1.60;;
35959;SDS011;22043;50.970;7.192;2023-05-13T14:05:30;3.20;;;2.00;;
35959;SDS011;22043;50.970;7.192;2023-05-13T14:07:56;3.55;;;1.60;;
35959;SDS011;22043;50.970;7.192;2023-05-13T14:10:21;3.22;;;1.30;;
35959;SDS011;22043;50.970;7.192;2023-05-13T14:12:47;3.70;;;1.75;;
35959;SDS011;22043;50.970;7.192;2023-05-13T14:15:12;5.35;;;2.17;;
35959;SDS011;22043;50.970;7.192;2023-05-13T14:17:38;3.17;;;1.83;;
35959;SDS011;22043;50.970;7.192;2023-05-13T14:20:04;1.88;;;1.20;;
35959;SDS011;22043;50.970;7.192;2023-05-13T14:22:30;2.75;;;1.67;;
35959;SDS011;22043;50.970;7.192;2023-05-13T14:24:56;3.03;;;1.58;;
35959;SDS011;22043;50.970;7.192;2023-05-13T14:27:21;4.03;;;1.42;;
35959;SDS011;22043;50.970;7.192;2023-05-13T14:29:48;2.13;;;1.00;;
35959;SDS011;22043;50.970;7.192;2023-05-13T14:32:14;3.25;;;1.48;;
35959;SDS011;22043;50.970;7.192;2023-05-13T14:34:40;2.50;;;1.35;;
35959;SDS011;22043;50.970;7.192;2023-05-13T14:37:06;3.97;;;1.50;;
35959;SDS011;22043;50.970;7.192;2023-05-13T14:39:31;2.72;;;1.25;;
35959;SDS011;22043;50.970;7.192;2023-05-13T14:41:57;3.55;;;1.20;;
35959;SDS011;22043;50.970;7.192;2023-05-13T14:44:22;2.00;;;1.05;;
35959;SDS011;22043;50.970;7.192;2023-05-13T14:46:48;1.90;;;1.17;;
35959;SDS011;22043;50.970;7.192;2023-05-13T14:49:14;4.18;;;1.08;;
35959;SDS011;22043;50.970;7.192;2023-05-13T14:51:40;4.85;;;1.77;;
35959;SDS011;22043;50.970;7.192;2023-05-13T14:54:05;3.17;;;1.20;;
35959;SDS011;22043;50.970;7.192;2023-05-13T14:56:31;3.42;;;1.38;;
35959;SDS011;22043;50.970;7.192;2023-05-13T14:58:56;2.10;;;1.00;;
35959;SDS011;22043;50.970;7.192;2023-05-13T15:01:22;2.65;;;1.30;;
35959;SDS011;22043;50.970;7.192;2023-05-13T15:03:47;3.20;;;1.20;;
35959;SDS011;22043;50.970;7.192;2023-05-13T15:06:13;4.32;;;1.60;;
35959;SDS011;22043;50.970;7.192;2023-05-13T15:08:39;3.03;;;1.27;;
35959;SDS011;22043;50.970;7.192;2023-05-13T15:11:04;2.50;;;1.33;;
35959;SDS011;22043;50.970;7.192;2023-05-13T15:13:30;2.53;;;1.35;;
35959;SDS011;22043;50.970;7.192;2023-05-13T15:16:02;2.55;;;1.30;;
35959;SDS011;22043;50.970;7.192;2023-05-13T15:18:28;2.55;;;1.40;;
35959;SDS011;22043;50.970;7.192;2023-05-13T15:20:54;1.83;;;1.02;;
35959;SDS011;22043;50.970;7.192;2023-05-13T15:23:20;2.92;;;1.05;;
35959;SDS011;22043;50.970;7.192;2023-05-13T15:25:45;2.00;;;1.13;;
35959;SDS011;22043;50.970;7.192;2023-05-13T15:28:12;1.88;;;0.88;;
35959;SDS011;22043;50.970;7.192;2023-05-13T15:30:37;1.75;;;1.10;;
35959;SDS011;22043;50.970;7.192;2023-05-13T15:33:03;2.22;;;1.33;;
35959;SDS011;22043;50.970;7.192;2023-05-13T15:35:29;2.30;;;1.10;;
35959;SDS011;22043;50.970;7.192;2023-05-13T15:37:54;2.92;;;1.20;;
35959;SDS011;22043;50.970;7.192;2023-05-13T15:40:20;1.88;;;1.10;;
35959;SDS011;22043;50.970;7.192;2023-05-13T15:42:45;3.42;;;0.98;;
35959;SDS011;22043;50.970;7.192;2023-05-13T15:45:12;3.13;;;1.45;;
35959;SDS011;22043;50.970;7.192;2023-05-13T15:47:38;2.25;;;1.30;;
35959;SDS011;22043;50.970;7.192;2023-05-13T15:50:04;2.55;;;1.27;;
35959;SDS011;22043;50.970;7.192;2023-05-13T15:52:29;2.80;;;1.33;;
35959;SDS011;22043;50.970;7.192;2023-05-13T15:54:55;2.75;;;1.40;;
35959;SDS011;22043;50.970;7.192;2023-05-13T15:57:20;4.20;;;1.63;;
35959;SDS011;22043;50.970;7.192;2023-05-13T15:59:46;3.97;;;1.65;;
35959;SDS011;22043;50.970;7.192;2023-05-13T16:02:11;3.15;;;1.38;;
35959;SDS011;22043;50.970;7.192;2023-05-13T16:04:37;4.20;;;1.17;;
35959;SDS011;22043;50.970;7.192;2023-05-13T16:07:02;4.00;;;1.45;;
35959;SDS011;22043;50.970;7.192;2023-05-13T16:09:28;2.65;;;1.35;;